sensor_id;sensor_type;location;lat;lon;timestamp;P1;durP1;ratioP1;P2;durP2;ratioP2
9108;SDS011;4590;51.462;6.692;2024-03-07T05:31:00;44.88;;;25.13;;
9108;SDS011;4590;51.462;6.692;2024-03-07T05:33:27;48.28;;;26.75;;
9108;SDS011;4590;51.462;6.692;2024-03-07T05:35:53;45.23;;;26.17;;
9108;SDS011;4590;51.462;6.692;2024-03-07T05:38:27;51.05;;;24.90;;
9108;SDS011;4590;51.462;6.692;2024-03-07T05:40:53;47.67;;;24.88;;
9108;SDS011;4590;51.462;6.692;2024-03-07T05:43:18;45.37;;;25.00;;
9108;SDS011;4590;51.462;6.692;2024-03-07T05:45:44;44.40;;;25.10;;
9108;SDS011;4590;51.462;6.692;2024-03-07T05:48:13;44.30;;;26.20;;
9108;SDS011;4590;51.462;6.692;2024-03-07T05:50:43;45.30;;;25.23;;
9108;SDS011;4590;51.462;6.692;2024-03-07T05:53:10;44.97;;;25.53;;
9108;SDS011;4590;51.462;6.692;2024-03-07T05:55:38;47.08;;;26.63;;
9108;SDS011;4590;51.462;6.692;2024-03-07T05:58:03;46.03;;;25.40;;
9108;SDS011;4590;51.462;6.692;2024-03-07T06:00:30;48.30;;;26.73;;
9108;SDS011;4590;51.462;6.692;2024-03-07T06:02:59;43.60;;;25.42;;
9108;SDS011;4590;51.462;6.692;2024-03-07T06:32:56;44.60;;;25.10;;
9108;SDS011;4590;51.462;6.692;2024-03-07T07:30:20;43.90;;;25.27;;
9108;SDS011;4590;51.462;6.692;2024-03-07T07:40:29;43.33;;;24.75;;
9108;SDS011;4590;51.462;6.692;2024-03-07T07:56:59;37.67;;;22.88;;
9108;SDS011;4590;51.462;6.692;2024-03-07T08:26:42;33.22;;;20.08;;
9108;SDS011;4590;51.462;6.692;2024-03-07T08:30:03;31.05;;;20.17;;
9108;SDS011;4590;51.462;6.692;2024-03-07T09:51:25;20.35;;;12.63;;
9108;SDS011;4590;51.462;6.692;2024-03-07T09:53:53;23.85;;;12.77;;
9108;SDS011;4590;51.462;6.692;2024-03-07T09:56:20;25.30;;;13.57;;
9108;SDS011;4590;51.462;6.692;2024-03-07T10:03:43;20.98;;;12.35;;
9108;SDS011;4590;51.462;6.692;2024-03-07T10:06:10;21.35;;;13.43;;
9108;SDS011;4590;51.462;6.692;2024-03-07T10:08:35;23.42;;;14.57;;
9108;SDS011;4590;51.462;6.692;2024-03-07T10:11:01;19.45;;;12.93;;
9108;SDS011;4590;51.462;6.692;2024-03-07T10:13:27;25.23;;;14.10;;
9108;SDS011;4590;51.462;6.692;2024-03-07T10:15:53;22.02;;;13.95;;
9108;SDS011;4590;51.462;6.692;2024-03-07T10:18:24;23.15;;;14.50;;
9108;SDS011;4590;51.462;6.692;2024-03-07T10:20:52;21.48;;;13.15;;
9108;SDS011;4590;51.462;6.692;2024-03-07T10:23:19;22.88;;;13.75;;
9108;SDS011;4590;51.462;6.692;2024-03-07T10:25:46;24.63;;;14.23;;
9108;SDS011;4590;51.462;6.692;2024-03-07T10:28:12;26.25;;;13.65;;
9108;SDS011;4590;51.462;6.692;2024-03-07T10:30:41;20.17;;;11.93;;
9108;SDS011;4590;51.462;6.692;2024-03-07T10:33:06;22.55;;;13.10;;
9108;SDS011;4590;51.462;6.692;2024-03-07T10:35:34;21.92;;;12.82;;
9108;SDS011;4590;51.462;6.692;2024-03-07T10:37:59;24.43;;;14.03;;
9108;SDS011;4590;51.462;6.692;2024-03-07T10:40:25;20.58;;;12.70;;
9108;SDS011;4590;51.462;6.692;2024-03-07T10:42:53;23.45;;;12.77;;
9108;SDS011;4590;51.462;6.692;2024-03-07T10:45:21;25.38;;;14.00;;
9108;SDS011;4590;51.462;6.692;2024-03-07T10:47:54;19.60;;;11.07;;
9108;SDS011;4590;51.462;6.692;2024-03-07T10:53:39;23.15;;;13.13;;
9108;SDS011;4590;51.462;6.692;2024-03-07T10:58:47;23.05;;;14.30;;
9108;SDS011;4590;51.462;6.692;2024-03-07T11:01:24;22.55;;;12.65;;
9108;SDS011;4590;51.462;6.692;2024-03-07T11:03:51;19.15;;;11.93;;
9108;SDS011;4590;51.462;6.692;2024-03-07T11:06:17;22.20;;;13.40;;
9108;SDS011;4590;51.462;6.692;2024-03-07T11:08:43;19.77;;;12.40;;
9108;SDS011;4590;51.462;6.692;2024-03-07T11:11:10;19.58;;;12.40;;
9108;SDS011;4590;51.462;6.692;2024-03-07T11:13:36;20.67;;;12.57;;
9108;SDS011;4590;51.462;6.692;2024-03-07T11:16:02;17.77;;;11.30;;
9108;SDS011;4590;51.462;6.692;2024-03-07T11:18:30;19.70;;;12.10;;
9108;SDS011;4590;51.462;6.692;2024-03-07T11:20:56;17.87;;;11.30;;
9108;SDS011;4590;51.462;6.692;2024-03-07T11:23:26;19.45;;;11.93;;
9108;SDS011;4590;51.462;6.692;2024-03-07T11:26:04;20.13;;;12.07;;
9108;SDS011;4590;51.462;6.692;2024-03-07T11:28:33;20.17;;;12.82;;
9108;SDS011;4590;51.462;6.692;2024-03-07T11:31:09;17.65;;;11.35;;
9108;SDS011;4590;51.462;6.692;2024-03-07T11:33:36;19.55;;;12.85;;
9108;SDS011;4590;51.462;6.692;2024-03-07T11:36:05;19.67;;;12.18;;
9108;SDS011;4590;51.462;6.692;2024-03-07T11:38:32;17.83;;;11.50;;
9108;SDS011;4590;51.462;6.692;2024-03-07T11:40:59;20.88;;;13.32;;
9108;SDS011;4590;51.462;6.692;2024-03-07T11:43:30;19.17;;;12.10;;
9108;SDS011;4590;51.462;6.692;2024-03-07T11:45:55;20.03;;;13.80;;
9108;SDS011;4590;51.462;6.692;2024-03-07T11:48:22;22.15;;;13.02;;
9108;SDS011;4590;51.462;6.692;2024-03-07T11:50:48;22.07;;;14.23;;
9108;SDS011;4590;51.462;6.692;2024-03-07T11:53:14;21.88;;;14.13;;
9108;SDS011;4590;51.462;6.692;2024-03-07T11:55:40;19.55;;;12.75;;
9108;SDS011;4590;51.462;6.692;2024-03-07T11:58:16;22.08;;;13.05;;
9108;SDS011;4590;51.462;6.692;2024-03-07T12:00:43;18.00;;;12.27;;
9108;SDS011;4590;51.462;6.692;2024-03-07T12:03:12;22.67;;;12.98;;
9108;SDS011;4590;51.462;6.692;2024-03-07T12:05:40;16.70;;;10.98;;
9108;SDS011;4590;51.462;6.692;2024-03-07T12:08:06;18.95;;;12.68;;
9108;SDS011;4590;51.462;6.692;2024-03-07T12:10:32;18.60;;;12.05;;
9108;SDS011;4590;51.462;6.692;2024-03-07T12:12:58;22.45;;;14.80;;
9108;SDS011;4590;51.462;6.692;2024-03-07T12:15:26;22.00;;;14.00;;
9108;SDS011;4590;51.462;6.692;2024-03-07T12:17:52;21.85;;;14.35;;
9108;SDS011;4590;51.462;6.692;2024-03-07T12:20:18;22.55;;;14.40;;
9108;SDS011;4590;51.462;6.692;2024-03-07T12:22:54;21.42;;;14.07;;
9108;SDS011;4590;51.462;6.692;2024-03-07T12:25:21;21.90;;;13.80;;
9108;SDS011;4590;51.462;6.692;2024-03-07T12:27:47;20.23;;;13.77;;
9108;SDS011;4590;51.462;6.692;2024-03-07T12:30:25;18.95;;;11.80;;
9108;SDS011;4590;51.462;6.692;2024-03-07T12:32:52;19.58;;;13.32;;
9108;SDS011;4590;51.462;6.692;2024-03-07T12:35:17;22.83;;;12.73;;
9108;SDS011;4590;51.462;6.692;2024-03-07T12:37:43;20.03;;;11.90;;
9108;SDS011;4590;51.462;6.692;2024-03-07T12:40:12;18.73;;;13.53;;
9108;SDS011;4590;51.462;6.692;2024-03-07T12:42:42;22.83;;;12.43;;
9108;SDS011;4590;51.462;6.692;2024-03-07T12:45:11;20.77;;;12.73;;
9108;SDS011;4590;51.462;6.692;2024-03-07T12:47:42;19.40;;;13.82;;
9108;SDS011;4590;51.462;6.692;2024-03-07T12:50:08;18.92;;;12.68;;
9108;SDS011;4590;51.462;6.692;2024-03-07T12:52:34;19.63;;;12.52;;
9108;SDS011;4590;51.462;6.692;2024-03-07T12:54:59;17.30;;;11.77;;
9108;SDS011;4590;51.462;6.692;2024-03-07T12:57:24;21.73;;;13.03;;
9108;SDS011;4590;51.462;6.692;2024-03-07T12:59:50;18.70;;;12.17;;
9108;SDS011;4590;51.462;6.692;2024-03-07T13:02:15;18.65;;;11.82;;
9108;SDS011;4590;51.462;6.692;2024-03-07T13:04:41;20.20;;;13.07;;
9108;SDS011;4590;51.462;6.692;2024-03-07T13:07:09;23.23;;;13.50;;
9108;SDS011;4590;51.462;6.692;2024-03-07T13:09:34;19.95;;;12.10;;
9108;SDS011;4590;51.462;6.692;2024-03-07T13:12:00;18.13;;;12.57;;
9108;SDS011;4590;51.462;6.692;2024-03-07T13:14:26;23.85;;;14.05;;
9108;SDS011;4590;51.462;6.692;2024-03-07T13:16:57;17.85;;;13.23;;
9108;SDS011;4590;51.462;6.692;2024-03-07T13:19:26;18.10;;;11.85;;
9108;SDS011;4590;51.462;6.692;2024-03-07T13:21:55;19.85;;;12.82;;
9108;SDS011;4590;51.462;6.692;2024-03-07T13:24:21;17.92;;;12.45;;
9108;SDS011;4590;51.462;6.692;2024-03-07T13:29:13;18.33;;;12.18;;
9108;SDS011;4590;51.462;6.692;2024-03-07T13:31:39;20.23;;;13.82;;
9108;SDS011;4590;51.462;6.692;2024-03-07T13:34:07;17.08;;;11.57;;
9108;SDS011;4590;51.462;6.692;2024-03-07T13:36:41;18.15;;;11.70;;
9108;SDS011;4590;51.462;6.692;2024-03-07T13:39:08;15.95;;;10.93;;
9108;SDS011;4590;51.462;6.692;2024-03-07T13:41:42;21.17;;;13.07;;
9108;SDS011;4590;51.462;6.692;2024-03-07T13:44:13;20.38;;;12.88;;
9108;SDS011;4590;51.462;6.692;2024-03-07T13:46:39;18.17;;;12.75;;
9108;SDS011;4590;51.462;6.692;2024-03-07T13:49:04;19.95;;;13.13;;
9108;SDS011;4590;51.462;6.692;2024-03-07T13:51:37;18.13;;;12.25;;
9108;SDS011;4590;51.462;6.692;2024-03-07T13:54:18;19.02;;;12.07;;
9108;SDS011;4590;51.462;6.692;2024-03-07T13:57:21;19.33;;;11.68;;
9108;SDS011;4590;51.462;6.692;2024-03-07T14:00:00;18.45;;;11.43;;
9108;SDS011;4590;51.462;6.692;2024-03-07T14:05:44;18.27;;;11.60;;
9108;SDS011;4590;51.462;6.692;2024-03-07T14:14:39;14.25;;;10.00;;
9108;SDS011;4590;51.462;6.692;2024-03-07T14:23:14;15.38;;;9.77;;
9108;SDS011;4590;51.462;6.692;2024-03-07T14:26:13;14.48;;;9.57;;
9108;SDS011;4590;51.462;6.692;2024-03-07T14:29:02;15.18;;;9.48;;
9108;SDS011;4590;51.462;6.692;2024-03-07T14:31:30;16.55;;;9.77;;
9108;SDS011;4590;51.462;6.692;2024-03-07T14:34:18;14.67;;;10.27;;
9108;SDS011;4590;51.462;6.692;2024-03-07T14:37:09;13.00;;;8.68;;
9108;SDS011;4590;51.462;6.692;2024-03-07T14:39:44;12.73;;;8.73;;
9108;SDS011;4590;51.462;6.692;2024-03-07T14:42:13;13.43;;;9.05;;
9108;SDS011;4590;51.462;6.692;2024-03-07T14:44:42;13.23;;;9.20;;
9108;SDS011;4590;51.462;6.692;2024-03-07T14:47:11;14.90;;;10.02;;
9108;SDS011;4590;51.462;6.692;2024-03-07T14:49:39;11.63;;;7.50;;
9108;SDS011;4590;51.462;6.692;2024-03-07T14:52:06;12.48;;;7.85;;
9108;SDS011;4590;51.462;6.692;2024-03-07T14:54:38;10.95;;;6.57;;
9108;SDS011;4590;51.462;6.692;2024-03-07T14:57:05;11.60;;;7.53;;
9108;SDS011;4590;51.462;6.692;2024-03-07T14:59:32;12.20;;;7.70;;
9108;SDS011;4590;51.462;6.692;2024-03-07T15:01:58;11.50;;;6.93;;
9108;SDS011;4590;51.462;6.692;2024-03-07T15:04:24;11.65;;;7.18;;
9108;SDS011;4590;51.462;6.692;2024-03-07T15:06:56;10.15;;;6.85;;
9108;SDS011;4590;51.462;6.692;2024-03-07T15:09:22;11.03;;;6.67;;
9108;SDS011;4590;51.462;6.692;2024-03-07T15:11:48;14.70;;;7.75;;
9108;SDS011;4590;51.462;6.692;2024-03-07T15:14:14;11.23;;;7.18;;
9108;SDS011;4590;51.462;6.692;2024-03-07T15:16:40;11.13;;;7.32;;
9108;SDS011;4590;51.462;6.692;2024-03-07T15:19:06;12.98;;;7.85;;
9108;SDS011;4590;51.462;6.692;2024-03-07T15:21:33;12.90;;;7.65;;
9108;SDS011;4590;51.462;6.692;2024-03-07T15:23:59;17.15;;;7.82;;
9108;SDS011;4590;51.462;6.692;2024-03-07T15:26:27;10.70;;;6.13;;
9108;SDS011;4590;51.462;6.692;2024-03-07T15:28:53;9.80;;;6.30;;
9108;SDS011;4590;51.462;6.692;2024-03-07T15:31:25;11.48;;;6.55;;
9108;SDS011;4590;51.462;6.692;2024-03-07T15:33:52;10.25;;;6.03;;
9108;SDS011;4590;51.462;6.692;2024-03-07T15:36:18;10.80;;;6.20;;
9108;SDS011;4590;51.462;6.692;2024-03-07T15:41:10;9.15;;;5.28;;
9108;SDS011;4590;51.462;6.692;2024-03-07T15:43:37;8.98;;;5.65;;
9108;SDS011;4590;51.462;6.692;2024-03-07T15:46:03;17.30;;;6.07;;
9108;SDS011;4590;51.462;6.692;2024-03-07T15:48:31;8.05;;;5.22;;
9108;SDS011;4590;51.462;6.692;2024-03-07T15:50:57;7.35;;;4.25;;
9108;SDS011;4590;51.462;6.692;2024-03-07T15:53:24;8.30;;;5.07;;
9108;SDS011;4590;51.462;6.692;2024-03-07T15:55:49;6.80;;;4.30;;
9108;SDS011;4590;51.462;6.692;2024-03-07T15:58:15;9.20;;;5.13;;
9108;SDS011;4590;51.462;6.692;2024-03-07T16:00:42;7.82;;;5.03;;
9108;SDS011;4590;51.462;6.692;2024-03-07T16:03:11;8.98;;;5.28;;
9108;SDS011;4590;51.462;6.692;2024-03-07T16:05:37;11.03;;;5.30;;
9108;SDS011;4590;51.462;6.692;2024-03-07T16:08:04;9.38;;;4.97;;
9108;SDS011;4590;51.462;6.692;2024-03-07T16:10:32;7.55;;;4.90;;
9108;SDS011;4590;51.462;6.692;2024-03-07T16:13:00;9.70;;;5.40;;
9108;SDS011;4590;51.462;6.692;2024-03-07T16:15:27;9.23;;;5.68;;
9108;SDS011;4590;51.462;6.692;2024-03-07T16:17:53;10.75;;;6.10;;
9108;SDS011;4590;51.462;6.692;2024-03-07T16:20:20;7.95;;;5.63;;
9108;SDS011;4590;51.462;6.692;2024-03-07T16:22:46;8.50;;;5.30;;
9108;SDS011;4590;51.462;6.692;2024-03-07T16:25:14;10.10;;;5.38;;
9108;SDS011;4590;51.462;6.692;2024-03-07T16:27:43;9.27;;;6.10;;
9108;SDS011;4590;51.462;6.692;2024-03-07T16:30:14;10.32;;;6.93;;
9108;SDS011;4590;51.462;6.692;2024-03-07T16:32:44;10.00;;;6.60;;
9108;SDS011;4590;51.462;6.692;2024-03-07T16:35:14;12.95;;;7.32;;
9108;SDS011;4590;51.462;6.692;2024-03-07T16:37:44;12.52;;;6.70;;
9108;SDS011;4590;51.462;6.692;2024-03-07T16:40:11;12.38;;;7.25;;
9108;SDS011;4590;51.462;6.692;2024-03-07T16:42:42;13.43;;;7.90;;
9108;SDS011;4590;51.462;6.692;2024-03-07T16:45:09;12.02;;;7.70;;
9108;SDS011;4590;51.462;6.692;2024-03-07T16:47:44;11.70;;;7.63;;
9108;SDS011;4590;51.462;6.692;2024-03-07T16:50:13;13.85;;;8.85;;
9108;SDS011;4590;51.462;6.692;2024-03-07T16:52:39;12.40;;;8.30;;
9108;SDS011;4590;51.462;6.692;2024-03-07T16:55:06;15.30;;;9.10;;
9108;SDS011;4590;51.462;6.692;2024-03-07T16:57:39;16.40;;;9.52;;
9108;SDS011;4590;51.462;6.692;2024-03-07T17:00:06;20.88;;;11.57;;
9108;SDS011;4590;51.462;6.692;2024-03-07T17:02:34;18.67;;;11.75;;
9108;SDS011;4590;51.462;6.692;2024-03-07T17:05:00;17.80;;;10.73;;
9108;SDS011;4590;51.462;6.692;2024-03-07T17:07:26;16.90;;;10.65;;
9108;SDS011;4590;51.462;6.692;2024-03-07T17:09:51;17.73;;;10.70;;
9108;SDS011;4590;51.462;6.692;2024-03-07T17:12:17;16.15;;;10.95;;
9108;SDS011;4590;51.462;6.692;2024-03-07T17:14:42;20.03;;;11.47;;
9108;SDS011;4590;51.462;6.692;2024-03-07T17:17:09;14.68;;;9.77;;
9108;SDS011;4590;51.462;6.692;2024-03-07T17:19:38;18.83;;;10.55;;
9108;SDS011;4590;51.462;6.692;2024-03-07T17:22:04;16.77;;;9.80;;
9108;SDS011;4590;51.462;6.692;2024-03-07T17:24:31;16.90;;;9.63;;
9108;SDS011;4590;51.462;6.692;2024-03-07T17:26:57;20.10;;;10.40;;
9108;SDS011;4590;51.462;6.692;2024-03-07T17:29:23;19.03;;;11.03;;
9108;SDS011;4590;51.462;6.692;2024-03-07T17:31:48;19.73;;;11.83;;
9108;SDS011;4590;51.462;6.692;2024-03-07T17:34:13;21.77;;;12.13;;
9108;SDS011;4590;51.462;6.692;2024-03-07T17:39:05;20.77;;;10.00;;
9108;SDS011;4590;51.462;6.692;2024-03-07T17:41:38;22.27;;;12.18;;
9108;SDS011;4590;51.462;6.692;2024-03-07T17:44:03;21.43;;;12.17;;
9108;SDS011;4590;51.462;6.692;2024-03-07T17:46:32;22.85;;;11.95;;
9108;SDS011;4590;51.462;6.692;2024-03-07T17:48:57;23.60;;;12.67;;
9108;SDS011;4590;51.462;6.692;2024-03-07T17:51:23;24.38;;;12.43;;
9108;SDS011;4590;51.462;6.692;2024-03-07T17:53:49;26.23;;;13.13;;
9108;SDS011;4590;51.462;6.692;2024-03-07T17:56:14;20.80;;;12.53;;
9108;SDS011;4590;51.462;6.692;2024-03-07T17:58:39;25.23;;;13.30;;
9108;SDS011;4590;51.462;6.692;2024-03-07T18:01:05;24.73;;;13.80;;
9108;SDS011;4590;51.462;6.692;2024-03-07T18:03:31;24.38;;;14.70;;
9108;SDS011;4590;51.462;6.692;2024-03-07T18:05:56;25.33;;;13.77;;
9108;SDS011;4590;51.462;6.692;2024-03-07T18:08:21;27.17;;;13.97;;
9108;SDS011;4590;51.462;6.692;2024-03-07T18:10:47;22.47;;;13.07;;
9108;SDS011;4590;51.462;6.692;2024-03-07T18:13:13;27.77;;;14.33;;
9108;SDS011;4590;51.462;6.692;2024-03-07T18:15:45;27.08;;;14.05;;
9108;SDS011;4590;51.462;6.692;2024-03-07T18:18:11;28.17;;;14.83;;
9108;SDS011;4590;51.462;6.692;2024-03-07T18:20:38;28.45;;;13.18;;
9108;SDS011;4590;51.462;6.692;2024-03-07T18:23:05;25.23;;;12.05;;
9108;SDS011;4590;51.462;6.692;2024-03-07T18:25:31;26.17;;;13.25;;
9108;SDS011;4590;51.462;6.692;2024-03-07T18:28:00;27.88;;;13.93;;
9108;SDS011;4590;51.462;6.692;2024-03-07T18:30:28;27.42;;;13.18;;
9108;SDS011;4590;51.462;6.692;2024-03-07T18:32:55;40.58;;;22.77;;
9108;SDS011;4590;51.462;6.692;2024-03-07T18:35:21;36.22;;;20.75;;
9108;SDS011;4590;51.462;6.692;2024-03-07T18:37:47;32.75;;;16.10;;
9108;SDS011;4590;51.462;6.692;2024-03-07T18:40:15;30.63;;;15.02;;
9108;SDS011;4590;51.462;6.692;2024-03-07T18:42:46;30.90;;;16.33;;
9108;SDS011;4590;51.462;6.692;2024-03-07T18:45:15;29.73;;;15.68;;
9108;SDS011;4590;51.462;6.692;2024-03-07T18:47:43;35.30;;;16.13;;
9108;SDS011;4590;51.462;6.692;2024-03-07T18:50:11;30.77;;;15.38;;
9108;SDS011;4590;51.462;6.692;2024-03-07T18:52:38;31.27;;;15.60;;
9108;SDS011;4590;51.462;6.692;2024-03-07T18:55:08;27.35;;;15.13;;
9108;SDS011;4590;51.462;6.692;2024-03-07T18:57:54;32.42;;;16.55;;
9108;SDS011;4590;51.462;6.692;2024-03-07T19:00:22;30.95;;;17.02;;
9108;SDS011;4590;51.462;6.692;2024-03-07T19:05:27;34.47;;;17.75;;
9108;SDS011;4590;51.462;6.692;2024-03-07T19:10:23;29.70;;;15.15;;
9108;SDS011;4590;51.462;6.692;2024-03-07T19:12:53;34.88;;;17.90;;
9108;SDS011;4590;51.462;6.692;2024-03-07T19:15:18;32.77;;;15.73;;
9108;SDS011;4590;51.462;6.692;2024-03-07T19:17:46;30.60;;;15.38;;
9108;SDS011;4590;51.462;6.692;2024-03-07T19:20:14;34.10;;;18.35;;
9108;SDS011;4590;51.462;6.692;2024-03-07T19:22:43;33.95;;;16.77;;
9108;SDS011;4590;51.462;6.692;2024-03-07T19:25:11;32.22;;;16.65;;
9108;SDS011;4590;51.462;6.692;2024-03-07T19:27:45;31.85;;;17.23;;
9108;SDS011;4590;51.462;6.692;2024-03-07T19:30:18;33.33;;;17.75;;
9108;SDS011;4590;51.462;6.692;2024-03-07T19:32:48;36.22;;;18.52;;
9108;SDS011;4590;51.462;6.692;2024-03-07T19:35:14;34.45;;;15.95;;
9108;SDS011;4590;51.462;6.692;2024-03-07T19:37:40;34.25;;;16.83;;
9108;SDS011;4590;51.462;6.692;2024-03-07T19:40:06;31.75;;;16.63;;
9108;SDS011;4590;51.462;6.692;2024-03-07T19:42:31;31.55;;;16.38;;
9108;SDS011;4590;51.462;6.692;2024-03-07T19:44:57;32.58;;;16.48;;
9108;SDS011;4590;51.462;6.692;2024-03-07T19:47:24;32.55;;;16.85;;
9108;SDS011;4590;51.462;6.692;2024-03-07T19:49:50;29.47;;;15.07;;
9108;SDS011;4590;51.462;6.692;2024-03-07T19:52:16;30.70;;;16.80;;
9108;SDS011;4590;51.462;6.692;2024-03-07T19:54:42;34.60;;;17.13;;
9108;SDS011;4590;51.462;6.692;2024-03-07T19:57:07;33.23;;;17.37;;
9108;SDS011;4590;51.462;6.692;2024-03-07T19:59:35;32.97;;;16.20;;
9108;SDS011;4590;51.462;6.692;2024-03-07T20:02:01;38.47;;;17.17;;
9108;SDS011;4590;51.462;6.692;2024-03-07T20:04:29;32.38;;;17.50;;
9108;SDS011;4590;51.462;6.692;2024-03-07T20:06:54;30.67;;;16.97;;
9108;SDS011;4590;51.462;6.692;2024-03-07T20:09:19;31.80;;;15.93;;
9108;SDS011;4590;51.462;6.692;2024-03-07T20:11:45;31.30;;;16.63;;
9108;SDS011;4590;51.462;6.692;2024-03-07T20:14:12;34.97;;;18.25;;
9108;SDS011;4590;51.462;6.692;2024-03-07T20:16:37;34.80;;;17.77;;
9108;SDS011;4590;51.462;6.692;2024-03-07T20:19:03;32.17;;;16.85;;
9108;SDS011;4590;51.462;6.692;2024-03-07T20:21:28;30.17;;;16.53;;
9108;SDS011;4590;51.462;6.692;2024-03-07T20:23:54;30.77;;;16.63;;
9108;SDS011;4590;51.462;6.692;2024-03-07T20:26:23;31.88;;;16.88;;
9108;SDS011;4590;51.462;6.692;2024-03-07T20:28:48;33.47;;;16.67;;
9108;SDS011;4590;51.462;6.692;2024-03-07T20:31:14;33.33;;;17.40;;
9108;SDS011;4590;51.462;6.692;2024-03-07T20:33:39;29.55;;;15.82;;
9108;SDS011;4590;51.462;6.692;2024-03-07T20:36:06;32.03;;;16.52;;
9108;SDS011;4590;51.462;6.692;2024-03-07T20:41:02;30.40;;;15.32;;
9108;SDS011;4590;51.462;6.692;2024-03-07T20:43:29;30.05;;;16.40;;
9108;SDS011;4590;51.462;6.692;2024-03-07T20:45:54;32.50;;;16.60;;
9108;SDS011;4590;51.462;6.692;2024-03-07T20:48:21;33.58;;;16.45;;
9108;SDS011;4590;51.462;6.692;2024-03-07T20:50:47;27.63;;;14.63;;
9108;SDS011;4590;51.462;6.692;2024-03-07T20:53:12;32.03;;;16.97;;
9108;SDS011;4590;51.462;6.692;2024-03-07T20:55:38;30.43;;;15.90;;
9108;SDS011;4590;51.462;6.692;2024-03-07T20:58:06;27.70;;;13.52;;
9108;SDS011;4590;51.462;6.692;2024-03-07T21:00:33;29.15;;;15.90;;
9108;SDS011;4590;51.462;6.692;2024-03-07T21:02:59;29.63;;;14.38;;
9108;SDS011;4590;51.462;6.692;2024-03-07T21:05:25;31.58;;;15.00;;
9108;SDS011;4590;51.462;6.692;2024-03-07T21:07:51;29.67;;;15.45;;
9108;SDS011;4590;51.462;6.692;2024-03-07T21:10:18;29.05;;;15.55;;
9108;SDS011;4590;51.462;6.692;2024-03-07T21:12:45;29.92;;;16.02;;
9108;SDS011;4590;51.462;6.692;2024-03-07T21:15:12;28.45;;;15.57;;
9108;SDS011;4590;51.462;6.692;2024-03-07T21:17:39;32.20;;;16.33;;
9108;SDS011;4590;51.462;6.692;2024-03-07T21:20:09;28.52;;;15.93;;
9108;SDS011;4590;51.462;6.692;2024-03-07T21:22:38;26.38;;;13.95;;
9108;SDS011;4590;51.462;6.692;2024-03-07T21:25:05;25.05;;;13.38;;
9108;SDS011;4590;51.462;6.692;2024-03-07T21:27:32;26.52;;;15.10;;
9108;SDS011;4590;51.462;6.692;2024-03-07T21:29:57;28.10;;;16.27;;
9108;SDS011;4590;51.462;6.692;2024-03-07T21:32:24;30.83;;;14.50;;
9108;SDS011;4590;51.462;6.692;2024-03-07T21:34:49;29.23;;;15.73;;
9108;SDS011;4590;51.462;6.692;2024-03-07T21:37:15;29.37;;;15.70;;
9108;SDS011;4590;51.462;6.692;2024-03-07T21:39:41;27.57;;;14.87;;
9108;SDS011;4590;51.462;6.692;2024-03-07T21:42:06;27.88;;;15.82;;
9108;SDS011;4590;51.462;6.692;2024-03-07T21:44:32;28.58;;;13.60;;
9108;SDS011;4590;51.462;6.692;2024-03-07T21:46:58;24.57;;;14.33;;
9108;SDS011;4590;51.462;6.692;2024-03-07T21:49:23;24.70;;;15.27;;
9108;SDS011;4590;51.462;6.692;2024-03-07T21:51:49;28.37;;;14.77;;
9108;SDS011;4590;51.462;6.692;2024-03-07T21:54:14;29.07;;;15.37;;
9108;SDS011;4590;51.462;6.692;2024-03-07T21:56:42;25.45;;;14.98;;
9108;SDS011;4590;51.462;6.692;2024-03-07T21:59:10;25.90;;;14.52;;
9108;SDS011;4590;51.462;6.692;2024-03-07T22:01:37;22.95;;;13.55;;
9108;SDS011;4590;51.462;6.692;2024-03-07T22:04:02;24.42;;;14.32;;
9108;SDS011;4590;51.462;6.692;2024-03-07T22:06:30;24.77;;;13.80;;
9108;SDS011;4590;51.462;6.692;2024-03-07T22:08:56;23.30;;;15.07;;
9108;SDS011;4590;51.462;6.692;2024-03-07T22:11:21;27.00;;;14.17;;
9108;SDS011;4590;51.462;6.692;2024-03-07T22:13:47;24.60;;;13.02;;
9108;SDS011;4590;51.462;6.692;2024-03-07T22:16:13;23.07;;;13.80;;
9108;SDS011;4590;51.462;6.692;2024-03-07T22:18:38;22.37;;;12.77;;
9108;SDS011;4590;51.462;6.692;2024-03-07T22:21:03;24.17;;;14.20;;
9108;SDS011;4590;51.462;6.692;2024-03-07T22:23:32;23.50;;;12.77;;
9108;SDS011;4590;51.462;6.692;2024-03-07T22:25:58;24.57;;;13.27;;
9108;SDS011;4590;51.462;6.692;2024-03-07T22:28:25;23.25;;;13.43;;
9108;SDS011;4590;51.462;6.692;2024-03-07T22:30:50;22.33;;;13.60;;
9108;SDS011;4590;51.462;6.692;2024-03-07T22:33:16;24.93;;;13.10;;
9108;SDS011;4590;51.462;6.692;2024-03-07T22:35:42;23.52;;;14.30;;
9108;SDS011;4590;51.462;6.692;2024-03-07T22:38:08;22.73;;;14.50;;
9108;SDS011;4590;51.462;6.692;2024-03-07T22:40:33;24.92;;;14.38;;
9108;SDS011;4590;51.462;6.692;2024-03-07T22:42:59;24.00;;;13.47;;
9108;SDS011;4590;51.462;6.692;2024-03-07T22:45:24;20.90;;;13.30;;
9108;SDS011;4590;51.462;6.692;2024-03-07T22:47:51;26.45;;;14.55;;
9108;SDS011;4590;51.462;6.692;2024-03-07T22:50:16;21.80;;;13.37;;
9108;SDS011;4590;51.462;6.692;2024-03-07T22:52:43;21.25;;;13.63;;
9108;SDS011;4590;51.462;6.692;2024-03-07T22:55:08;21.50;;;12.65;;
9108;SDS011;4590;51.462;6.692;2024-03-07T22:57:34;22.83;;;12.73;;
9108;SDS011;4590;51.462;6.692;2024-03-07T23:00:01;21.20;;;12.63;;
9108;SDS011;4590;51.462;6.692;2024-03-07T23:02:28;20.88;;;13.45;;
9108;SDS011;4590;51.462;6.692;2024-03-07T23:04:53;20.57;;;13.37;;
9108;SDS011;4590;51.462;6.692;2024-03-07T23:07:18;24.43;;;12.87;;
9108;SDS011;4590;51.462;6.692;2024-03-07T23:09:44;24.70;;;13.63;;
9108;SDS011;4590;51.462;6.692;2024-03-07T23:12:09;24.20;;;14.47;;
9108;SDS011;4590;51.462;6.692;2024-03-07T23:14:36;23.10;;;13.23;;
9108;SDS011;4590;51.462;6.692;2024-03-07T23:17:02;24.42;;;14.10;;
9108;SDS011;4590;51.462;6.692;2024-03-07T23:19:29;20.13;;;12.55;;
9108;SDS011;4590;51.462;6.692;2024-03-07T23:24:21;20.10;;;12.65;;
9108;SDS011;4590;51.462;6.692;2024-03-07T23:26:47;21.67;;;13.33;;
9108;SDS011;4590;51.462;6.692;2024-03-07T23:29:16;22.65;;;13.75;;
9108;SDS011;4590;51.462;6.692;2024-03-07T23:31:42;21.77;;;13.13;;
9108;SDS011;4590;51.462;6.692;2024-03-07T23:34:07;22.00;;;14.13;;
9108;SDS011;4590;51.462;6.692;2024-03-07T23:36:32;19.40;;;12.70;;
9108;SDS011;4590;51.462;6.692;2024-03-07T23:38:58;20.10;;;12.23;;
9108;SDS011;4590;51.462;6.692;2024-03-07T23:41:23;22.20;;;13.87;;
9108;SDS011;4590;51.462;6.692;2024-03-07T23:43:48;19.33;;;12.83;;
9108;SDS011;4590;51.462;6.692;2024-03-07T23:46:16;20.15;;;13.07;;
9108;SDS011;4590;51.462;6.692;2024-03-07T23:48:41;22.03;;;13.70;;
9108;SDS011;4590;51.462;6.692;2024-03-07T23:51:07;23.35;;;13.95;;
9108;SDS011;4590;51.462;6.692;2024-03-07T23:53:35;21.73;;;14.05;;
9108;SDS011;4590;51.462;6.692;2024-03-07T23:56:02;21.70;;;14.10;;
9108;SDS011;4590;51.462;6.692;2024-03-07T23:58:28;21.85;;;12.90;;
